Time,TemperatureF,DewpointF,PressureIn,WindDirection,WindDirectionDegrees,WindSpeedMPH,WindSpeedGustMPH,Humidity,HourlyPrecipIn,Conditions,Clouds,dailyrainin,SoftwareType,DateUTC
2013-05-27 00:00:00,48.0,45.0,29.55,North,-999,-999.0,-999.0,89,-99.99,,,-99.99,,2013-05-26 23:00:00,
2013-05-27 00:42:00,48.0,45.0,29.55,North,-999,-999.0,-999.0,89,-99.99,,,-99.99,,2013-05-26 23:42:00,
2013-05-27 00:51:00,48.0,45.0,29.55,North,-999,-999.0,-999.0,89,-99.99,,,-99.99,,2013-05-26 23:51:00,
2013-05-27 01:00:00,46.0,44.0,29.51,North,-999,-999.0,-999.0,89,-99.99,,,-99.99,,2013-05-27 00:00:00,
2013-05-27 01:31:00,46.0,44.0,29.51,North,-999,-999.0,-999.0,89,-99.99,,,-99.99,,2013-05-27 00:31:00,
2013-05-27 01:41:00,46.0,44.0,29.51,North,-999,-999.0,-999.0,89,-99.99,,,-99.99,,2013-05-27 00:41:00,
2013-05-27 01:51:00,46.0,44.0,29.51,North,-999,-999.0,-999.0,89,-99.99,,,-99.99,,2013-05-27 00:51:00,
2013-05-27 02:00:00,47.0,45.0,29.46,North,-999,-999.0,-999.0,90,-99.99,,,-99.99,,2013-05-27 01:00:00,
2013-05-27 02:41:00,47.0,45.0,29.46,North,-999,-999.0,-999.0,90,-99.99,,,-99.99,,2013-05-27 01:41:00,
2013-05-27 02:52:00,47.0,45.0,29.46,North,-999,-999.0,-999.0,90,-99.99,,,-99.99,,2013-05-27 01:52:00,
2013-05-27 03:00:00,48.0,45.0,29.42,North,-999,-999.0,-999.0,91,-99.99,,,-99.99,,2013-05-27 02:00:00,
2013-05-27 03:42:00,48.0,45.0,29.42,North,-999,-999.0,-999.0,91,-99.99,,,-99.99,,2013-05-27 02:42:00,
2013-05-27 03:52:00,48.0,45.0,29.42,North,-999,-999.0,-999.0,91,-99.99,,,-99.99,,2013-05-27 02:52:00,
2013-05-27 04:00:00,48.0,46.0,29.38,North,-999,-999.0,-999.0,92,-99.99,,,-99.99,,2013-05-27 03:00:00,
2013-05-27 04:42:00,48.0,46.0,29.38,North,-999,-999.0,-999.0,92,-99.99,,,-99.99,,2013-05-27 03:42:00,
2013-05-27 04:53:00,48.0,46.0,29.38,North,-999,-999.0,-999.0,92,-99.99,,,-99.99,,2013-05-27 03:53:00,
2013-05-27 05:00:00,47.0,46.0,29.35,North,-999,-999.0,-999.0,94,-99.99,,,-99.99,,2013-05-27 04:00:00,
2013-05-27 05:33:00,47.0,46.0,29.35,North,-999,-999.0,-999.0,94,-99.99,,,-99.99,,2013-05-27 04:33:00,
2013-05-27 05:42:00,47.0,46.0,29.35,North,-999,-999.0,-999.0,94,-99.99,,,-99.99,,2013-05-27 04:42:00,
2013-05-27 05:52:00,47.0,46.0,29.35,North,-999,-999.0,-999.0,94,-99.99,,,-99.99,,2013-05-27 04:52:00,
2013-05-27 06:00:00,47.0,46.0,29.33,North,-999,-999.0,-999.0,94,-99.99,,,-99.99,,2013-05-27 05:00:00,
2013-05-27 06:41:00,47.0,46.0,29.33,North,-999,-999.0,-999.0,94,-99.99,,,-99.99,,2013-05-27 05:41:00,
2013-05-27 06:52:00,47.0,46.0,29.33,North,-999,-999.0,-999.0,94,-99.99,,,-99.99,,2013-05-27 05:52:00,
2013-05-27 07:00:00,47.0,45.0,29.33,North,-999,-999.0,-999.0,93,-99.99,,,-99.99,,2013-05-27 06:00:00,
2013-05-27 07:41:00,47.0,45.0,29.33,North,-999,-999.0,-999.0,93,-99.99,,,-99.99,,2013-05-27 06:41:00,
2013-05-27 07:51:00,47.0,45.0,29.33,North,-999,-999.0,-999.0,93,-99.99,,,-99.99,,2013-05-27 06:51:00,
2013-05-27 08:00:00,49.0,45.0,29.31,North,-999,-999.0,-999.0,84,-99.99,,,-99.99,,2013-05-27 07:00:00,
2013-05-27 08:41:00,49.0,45.0,29.31,North,-999,-999.0,-999.0,84,-99.99,,,-99.99,,2013-05-27 07:41:00,
2013-05-27 08:52:00,49.0,45.0,29.31,North,-999,-999.0,-999.0,84,-99.99,,,-99.99,,2013-05-27 07:52:00,
2013-05-27 09:00:00,48.0,44.0,29.27,North,-999,-999.0,-999.0,84,-99.99,,,-99.99,,2013-05-27 08:00:00,
2013-05-27 09:41:00,48.0,44.0,29.27,North,-999,-999.0,-999.0,84,-99.99,,,-99.99,,2013-05-27 08:41:00,
2013-05-27 09:51:00,48.0,44.0,29.27,North,-999,-999.0,-999.0,84,-99.99,,,-99.99,,2013-05-27 08:51:00,
2013-05-27 10:00:00,49.0,45.0,29.30,North,-999,-999.0,-999.0,86,-99.99,,,-99.99,,2013-05-27 09:00:00,
2013-05-27 10:42:00,49.0,45.0,29.30,North,-999,-999.0,-999.0,86,-99.99,,,-99.99,,2013-05-27 09:42:00,
2013-05-27 10:52:00,49.0,45.0,29.30,North,-999,-999.0,-999.0,86,-99.99,,,-99.99,,2013-05-27 09:52:00,
2013-05-27 11:00:00,49.0,44.0,29.32,North,-999,-999.0,-999.0,84,-99.99,,,-99.99,,2013-05-27 10:00:00,
2013-05-27 11:32:00,49.0,44.0,29.32,North,-999,-999.0,-999.0,84,-99.99,,,-99.99,,2013-05-27 10:32:00,
2013-05-27 11:41:00,49.0,44.0,29.32,North,-999,-999.0,-999.0,84,-99.99,,,-99.99,,2013-05-27 10:41:00,
2013-05-27 11:52:00,49.0,44.0,29.32,North,-999,-999.0,-999.0,84,-99.99,,,-99.99,,2013-05-27 10:52:00,
2013-05-27 12:00:00,49.0,45.0,29.34,North,-999,-999.0,-999.0,84,-99.99,,,-99.99,,2013-05-27 11:00:00,
2013-05-27 12:31:00,49.0,45.0,29.34,North,-999,-999.0,-999.0,84,-99.99,,,-99.99,,2013-05-27 11:31:00,
2013-05-27 12:41:00,49.0,45.0,29.34,North,-999,-999.0,-999.0,84,-99.99,,,-99.99,,2013-05-27 11:41:00,
2013-05-27 12:51:00,49.0,45.0,29.34,North,-999,-999.0,-999.0,84,-99.99,,,-99.99,,2013-05-27 11:51:00,
2013-05-27 13:00:00,52.0,41.0,29.36,North,-999,-999.0,-999.0,66,-99.99,,,-99.99,,2013-05-27 12:00:00,
2013-05-27 13:42:00,52.0,41.0,29.36,North,-999,-999.0,-999.0,66,-99.99,,,-99.99,,2013-05-27 12:42:00,
2013-05-27 13:52:00,52.0,41.0,29.36,North,-999,-999.0,-999.0,66,-99.99,,,-99.99,,2013-05-27 12:52:00,
2013-05-27 14:00:00,49.0,44.0,29.39,North,-999,-999.0,-999.0,80,-99.99,,,-99.99,,2013-05-27 13:00:00,
2013-05-27 14:41:00,49.0,44.0,29.39,North,-999,-999.0,-999.0,80,-99.99,,,-99.99,,2013-05-27 13:41:00,
2013-05-27 14:52:00,49.0,44.0,29.39,North,-999,-999.0,-999.0,80,-99.99,,,-99.99,,2013-05-27 13:52:00,
2013-05-27 15:00:00,55.0,42.0,29.40,North,-999,-999.0,-999.0,61,-99.99,,,-99.99,,2013-05-27 14:00:00,
2013-05-27 15:41:00,55.0,42.0,29.40,North,-999,-999.0,-999.0,61,-99.99,,,-99.99,,2013-05-27 14:41:00,
2013-05-27 15:51:00,55.0,42.0,29.40,North,-999,-999.0,-999.0,61,-99.99,,,-99.99,,2013-05-27 14:51:00,
2013-05-27 16:00:00,53.0,43.0,29.39,North,-999,-999.0,-999.0,70,-99.99,,,-99.99,,2013-05-27 15:00:00,
2013-05-27 16:43:00,53.0,43.0,29.39,North,-999,-999.0,-999.0,70,-99.99,,,-99.99,,2013-05-27 15:43:00,
2013-05-27 16:53:00,53.0,43.0,29.39,North,-999,-999.0,-999.0,70,-99.99,,,-99.99,,2013-05-27 15:53:00,
2013-05-27 17:00:00,52.0,42.0,29.37,North,-999,-999.0,-999.0,69,-99.99,,,-99.99,,2013-05-27 16:00:00,
2013-05-27 17:42:00,52.0,42.0,29.37,North,-999,-999.0,-999.0,69,-99.99,,,-99.99,,2013-05-27 16:42:00,
2013-05-27 17:52:00,52.0,42.0,29.37,North,-999,-999.0,-999.0,69,-99.99,,,-99.99,,2013-05-27 16:52:00,
2013-05-27 18:00:00,50.0,42.0,29.36,North,-999,-999.0,-999.0,73,-99.99,,,-99.99,,2013-05-27 17:00:00,
2013-05-27 18:42:00,50.0,42.0,29.36,North,-999,-999.0,-999.0,73,-99.99,,,-99.99,,2013-05-27 17:42:00,
2013-05-27 18:52:00,50.0,42.0,29.36,North,-999,-999.0,-999.0,73,-99.99,,,-99.99,,2013-05-27 17:52:00,
2013-05-27 19:00:00,50.0,42.0,29.34,North,-999,-999.0,-999.0,74,-99.99,,,-99.99,,2013-05-27 18:00:00,
2013-05-27 19:41:00,50.0,42.0,29.34,North,-999,-999.0,-999.0,74,-99.99,,,-99.99,,2013-05-27 18:41:00,
2013-05-27 19:52:00,50.0,42.0,29.34,North,-999,-999.0,-999.0,74,-99.99,,,-99.99,,2013-05-27 18:52:00,
2013-05-27 20:00:00,49.0,44.0,29.31,North,-999,-999.0,-999.0,82,-99.99,,,-99.99,,2013-05-27 19:00:00,
2013-05-27 20:41:00,49.0,44.0,29.31,North,-999,-999.0,-999.0,82,-99.99,,,-99.99,,2013-05-27 19:41:00,
2013-05-27 20:52:00,49.0,44.0,29.31,North,-999,-999.0,-999.0,82,-99.99,,,-99.99,,2013-05-27 19:52:00,
2013-05-27 21:00:00,49.0,45.0,29.33,North,-999,-999.0,-999.0,85,-99.99,,,-99.99,,2013-05-27 20:00:00,
2013-05-27 21:41:00,49.0,45.0,29.33,North,-999,-999.0,-999.0,85,-99.99,,,-99.99,,2013-05-27 20:41:00,
2013-05-27 21:52:00,49.0,45.0,29.33,North,-999,-999.0,-999.0,85,-99.99,,,-99.99,,2013-05-27 20:52:00,
2013-05-27 22:00:00,49.0,45.0,29.34,North,-999,-999.0,-999.0,87,-99.99,,,-99.99,,2013-05-27 21:00:00,
2013-05-27 22:42:00,49.0,45.0,29.34,North,-999,-999.0,-999.0,87,-99.99,,,-99.99,,2013-05-27 21:42:00,
2013-05-27 22:53:00,49.0,45.0,29.34,North,-999,-999.0,-999.0,87,-99.99,,,-99.99,,2013-05-27 21:53:00,
2013-05-27 23:00:00,49.0,45.0,29.36,North,-999,-999.0,-999.0,88,-99.99,,,-99.99,,2013-05-27 22:00:00,
2013-05-27 23:42:00,49.0,45.0,29.36,North,-999,-999.0,-999.0,88,-99.99,,,-99.99,,2013-05-27 22:42:00,
2013-05-27 23:52:00,49.0,45.0,29.36,North,-999,-999.0,-999.0,88,-99.99,,,-99.99,,2013-05-27 22:52:00,